Time;durP1;ratioP1;P1;durP2;ratioP2;P2;SDS_P1;SDS_P2;PMS_P1;PMS_P2;Temp;Humidity;BMP_temperature;BMP_pressure;BME280_temperature;BME280_humidity;BME280_pressure;Samples;Min_cycle;Max_cycle;Signal;HPM_P1;HPM_P2
2024/02/14 00:03:17;;;;;;;11.88;7.95;;;;;;;11.71;100.00;100547.38;10433125;28;20552;-79
2024/02/14 00:08:39;;;;;;;15.52;11.20;;;;;;;11.36;100.00;100545.31;10471881;28;20044;-79
2024/02/14 00:14:03;;;;;;;16.75;14.15;;;;;;;11.11;100.00;100546.84;10480249;28;20049;-76
2024/02/14 00:19:26;;;;;;;9.35;5.70;;;;;;;11.37;100.00;100539.16;10453424;28;20044;-78
2024/02/14 00:24:48;;;;;;;58.10;40.28;;;;;;;11.21;100.00;100536.38;10466984;28;20049;-78
2024/02/14 00:30:14;;;;;;;11.10;7.72;;;;;;;10.90;100.00;100543.09;10466649;28;20094;-78
2024/02/14 00:35:37;;;;;;;7.13;4.38;;;;;;;10.75;100.00;100543.84;10453415;28;20049;-78
2024/02/14 00:41:00;;;;;;;14.80;3.92;;;;;;;10.90;100.00;100540.47;10466512;28;20041;-78
2024/02/14 00:46:24;;;;;;;10.88;4.22;;;;;;;10.92;100.00;100533.44;10425780;28;20049;-78
2024/02/14 00:51:46;;;;;;;12.13;5.80;;;;;;;11.03;100.00;100526.50;10410743;28;20851;-79
2024/02/14 00:57:09;;;;;;;25.02;12.38;;;;;;;11.23;100.00;100522.28;10452415;28;20482;-78
2024/02/14 01:02:33;;;;;;;30.00;13.88;;;;;;;11.15;100.00;100513.44;10453249;28;20056;-79
2024/02/14 01:07:55;;;;;;;13.40;5.90;;;;;;;11.02;100.00;100506.28;10451284;28;20413;-79
2024/02/14 01:13:18;;;;;;;10.10;4.55;;;;;;;11.01;100.00;100505.38;10437352;28;20494;-78
2024/02/14 01:18:42;;;;;;;8.35;4.88;;;;;;;11.11;100.00;100493.13;10437089;28;20419;-78
2024/02/14 01:24:08;;;;;;;10.75;5.40;;;;;;;11.30;100.00;100504.75;10449590;28;20487;-78
2024/02/14 01:29:31;;;;;;;11.98;6.55;;;;;;;11.45;100.00;100504.88;10465362;28;20513;-79
2024/02/14 01:34:55;;;;;;;26.60;20.35;;;;;;;11.60;100.00;100486.50;10451476;28;20056;-78
2024/02/14 01:40:17;;;;;;;7.07;4.18;;;;;;;11.51;100.00;100499.63;10465491;28;20502;-78
2024/02/14 01:45:40;;;;;;;7.97;4.90;;;;;;;11.48;100.00;100495.22;10436947;28;20056;-78
2024/02/14 01:51:07;;;;;;;6.15;3.75;;;;;;;11.84;100.00;100488.44;10448559;28;20052;-78
2024/02/14 01:56:30;;;;;;;9.10;4.40;;;;;;;12.14;100.00;100485.94;10464160;28;20036;-78
2024/02/14 02:01:53;;;;;;;8.25;4.45;;;;;;;12.03;100.00;100484.13;10436227;28;20107;-78
2024/02/14 02:07:19;;;;;;;10.65;5.60;;;;;;;12.01;100.00;100494.72;10436850;28;20049;-81
2024/02/14 02:12:41;;;;;;;8.98;5.10;;;;;;;11.90;100.00;100491.09;10464941;28;20102;-81
2024/02/14 02:18:05;;;;;;;10.00;4.80;;;;;;;11.87;100.00;100493.75;10450402;28;20139;-81
2024/02/14 02:23:29;;;;;;;8.50;3.72;;;;;;;11.86;100.00;100494.63;10449389;28;20107;-80
2024/02/14 02:28:52;;;;;;;7.70;3.97;;;;;;;11.95;100.00;100495.53;10435585;28;20110;-80
2024/02/14 02:34:16;;;;;;;10.13;4.38;;;;;;;11.96;100.00;100499.06;10450343;28;20494;-79
2024/02/14 02:39:40;;;;;;;5.75;3.53;;;;;;;12.00;100.00;100492.94;10449103;28;20051;-80
2024/02/14 02:45:05;;;;;;;5.32;3.60;;;;;;;11.91;100.00;100498.19;10448989;28;20493;-80
2024/02/14 02:50:27;;;;;;;9.70;6.53;;;;;;;12.06;100.00;100495.63;10460410;28;20045;-80
2024/02/14 02:55:54;;;;;;;5.68;3.97;;;;;;;12.22;100.00;100491.28;10462621;28;20389;-79
2024/02/14 03:01:16;;;;;;;5.55;3.25;;;;;;;12.25;100.00;100483.34;10448381;28;20053;-79
2024/02/14 03:06:39;;;;;;;17.02;13.95;;;;;;;12.20;100.00;100485.09;10434564;28;20045;-80
2024/02/14 03:12:04;;;;;;;7.53;3.65;;;;;;;12.32;100.00;100490.44;10449250;28;20447;-79
2024/02/14 03:17:28;;;;;;;12.05;8.07;;;;;;;12.42;100.00;100492.25;10461576;28;20052;-79
2024/02/14 03:22:51;;;;;;;10.35;5.93;;;;;;;12.49;100.00;100499.31;10420665;28;20398;-80
2024/02/14 03:28:15;;;;;;;16.63;6.18;;;;;;;12.35;100.00;100493.09;10462625;28;20052;-78
2024/02/14 03:33:38;;;;;;;12.30;7.00;;;;;;;12.32;100.00;100496.63;10433101;28;20059;-79
2024/02/14 03:39:03;;;;;;;10.02;5.10;;;;;;;12.14;100.00;100490.38;10447367;28;20037;-79
2024/02/14 03:44:27;;;;;;;7.78;3.78;;;;;;;11.99;100.00;100496.47;10433472;28;20474;-78
2024/02/14 03:49:51;;;;;;;9.73;4.45;;;;;;;11.74;100.00;100507.78;10460513;28;20667;-77
2024/02/14 03:55:16;;;;;;;9.48;3.75;;;;;;;11.88;100.00;100506.09;10482150;28;20144;-78
2024/02/14 04:00:40;;;;;;;9.18;5.80;;;;;;;11.96;100.00;100512.31;10465965;28;20132;-79
2024/02/14 04:06:03;;;;;;;10.43;4.35;;;;;;;12.12;100.00;100510.63;10453911;28;20052;-78
2024/02/14 04:11:25;;;;;;;11.80;6.63;;;;;;;12.17;100.00;100516.84;10466999;28;20045;-78
2024/02/14 04:16:49;;;;;;;7.18;5.35;;;;;;;12.22;100.00;100520.38;10480761;28;20045;-78
2024/02/14 04:22:12;;;;;;;22.63;13.43;;;;;;;12.23;100.00;100533.63;10481073;28;20051;-77
2024/02/14 04:27:34;;;;;;;6.72;4.90;;;;;;;12.36;100.00;100532.81;10452389;28;20098;-78
2024/02/14 04:32:58;;;;;;;13.05;9.82;;;;;;;12.28;100.00;100523.06;10452868;28;20528;-78
2024/02/14 04:38:21;;;;;;;17.85;11.60;;;;;;;12.44;100.00;100519.59;10456727;28;20383;-76
2024/02/14 04:43:44;;;;;;;18.88;10.32;;;;;;;12.73;100.00;100525.03;10437840;28;20048;-77
2024/02/14 04:49:08;;;;;;;14.95;10.88;;;;;;;12.97;100.00;100533.00;10479930;28;20135;-77
2024/02/14 04:54:30;;;;;;;15.23;8.75;;;;;;;13.06;100.00;100517.13;10455150;28;20483;-77
2024/02/14 04:59:53;;;;;;;10.18;8.07;;;;;;;13.16;100.00;100510.09;10464697;28;20048;-77
2024/02/14 05:05:17;;;;;;;6.45;4.43;;;;;;;13.19;100.00;100523.38;10451233;28;20053;-77
2024/02/14 05:10:39;;;;;;;9.52;6.90;;;;;;;13.24;100.00;100523.38;10447004;28;20052;-78
2024/02/14 05:16:04;;;;;;;8.77;4.15;;;;;;;13.05;100.00;100533.91;10434096;28;20075;-77
2024/02/14 05:21:28;;;;;;;9.90;3.40;;;;;;;12.89;100.00;100537.41;10449049;28;20115;-78
2024/02/14 05:26:52;;;;;;;5.43;2.90;;;;;;;12.91;100.00;100535.66;10458698;28;20107;-78
2024/02/14 05:32:14;;;;;;;8.13;2.90;;;;;;;12.86;100.00;100541.81;10452591;28;20482;-78
2024/02/14 05:37:38;;;;;;;6.07;3.17;;;;;;;13.03;100.00;100530.38;10449105;28;20315;-78
2024/02/14 05:43:01;;;;;;;8.68;3.53;;;;;;;13.14;100.00;100543.66;10459122;28;20052;-77
2024/02/14 05:48:23;;;;;;;11.27;6.93;;;;;;;13.25;100.00;100544.59;10512456;28;20449;-77
2024/02/14 05:53:47;;;;;;;11.43;6.95;;;;;;;13.01;100.00;100544.50;10452109;28;20049;-78
2024/02/14 05:59:11;;;;;;;9.45;3.53;;;;;;;12.86;100.00;100553.31;10479374;28;20561;-77
2024/02/14 06:04:33;;;;;;;12.70;3.60;;;;;;;13.14;100.00;100559.56;10511849;28;20040;-77
2024/02/14 06:09:57;;;;;;;5.32;2.97;;;;;;;13.45;100.00;100553.44;10505996;28;20122;-77
2024/02/14 06:15:20;;;;;;;7.10;3.35;;;;;;;13.64;100.00;100553.44;10503165;28;20494;-78
2024/02/14 06:20:43;;;;;;;6.93;4.78;;;;;;;13.94;100.00;100551.63;10494178;28;20051;-78
2024/02/14 06:26:07;;;;;;;12.20;5.78;;;;;;;14.03;100.00;100556.06;10490931;28;20440;-78
2024/02/14 06:31:30;;;;;;;17.08;13.93;;;;;;;14.21;100.00;100552.47;10483815;28;20405;-77
2024/02/14 06:36:53;;;;;;;21.80;19.42;;;;;;;14.86;100.00;100551.34;10446540;28;20139;-78
2024/02/14 06:42:17;;;;;;;19.08;17.10;;;;;;;15.78;100.00;100550.72;10468191;28;20136;-78
2024/02/14 06:47:39;;;;;;;7.25;4.90;;;;;;;16.40;100.00;100542.97;10468644;28;20409;-78
2024/02/14 06:53:02;;;;;;;21.77;17.92;;;;;;;15.88;100.00;100552.38;10462058;28;20057;-78
2024/02/14 06:58:26;;;;;;;14.30;10.50;;;;;;;15.81;100.00;100569.31;10472964;28;20082;-76
2024/02/14 07:03:49;;;;;;;11.68;4.78;;;;;;;15.79;100.00;100564.91;10443487;28;20045;-77
2024/02/14 07:09:12;;;;;;;7.45;5.10;;;;;;;16.26;100.00;100575.09;10469984;28;20584;-78
2024/02/14 07:14:36;;;;;;;24.17;19.98;;;;;;;16.67;100.00;100569.34;10433670;28;20110;-77
2024/02/14 07:19:58;;;;;;;12.43;8.68;;;;;;;16.40;100.00;100581.16;10445719;28;20855;-79
2024/02/14 07:25:21;;;;;;;17.40;14.80;;;;;;;16.09;100.00;100587.69;10454312;28;20056;-78
2024/02/14 07:30:48;;;;;;;28.83;25.92;;;;;;;16.02;100.00;100597.50;10452315;28;20084;-77
2024/02/14 07:36:10;;;;;;;11.90;6.88;;;;;;;16.39;100.00;100591.81;10455211;28;20056;-78
2024/02/14 07:41:33;;;;;;;8.20;3.20;;;;;;;16.80;100.00;100580.72;10454290;28;20161;-78
2024/02/14 07:46:57;;;;;;;5.35;4.03;;;;;;;16.55;100.00;100572.09;10456077;28;20448;-78
2024/02/14 08:05:33;;;;;;;14.13;5.90;;;;;;;15.66;100.00;100579.22;10449261;28;20700;-80
2024/02/14 08:10:56;;;;;;;9.40;3.95;;;;;;;15.34;100.00;100582.97;10423866;28;20053;-82
2024/02/14 08:16:18;;;;;;;12.00;4.57;;;;;;;15.41;100.00;100581.16;10479013;28;20110;-78
2024/02/14 08:21:42;;;;;;;7.88;3.42;;;;;;;15.64;100.00;100581.00;10471012;28;20061;-80
2024/02/14 08:27:06;;;;;;;3.58;2.55;;;;;;;17.46;100.00;100576.19;10463669;28;20064;-83
2024/02/14 08:32:29;;;;;;;7.30;2.83;;;;;;;20.68;100.00;100564.63;10442066;28;20085;-82
2024/02/14 08:37:53;;;;;;;4.47;2.17;;;;;;;19.32;100.00;100571.72;10447105;28;20045;-81
2024/02/14 08:43:16;;;;;;;9.63;3.83;;;;;;;20.66;100.00;100557.56;10459080;28;20060;-83
2024/02/14 08:48:41;;;;;;;7.22;2.80;;;;;;;20.50;100.00;100553.53;10469743;28;20083;-79
2024/02/14 08:54:10;;;;;;;8.95;2.88;;;;;;;20.88;100.00;100550.63;10454503;28;20052;-81
2024/02/14 08:59:33;;;;;;;7.35;3.70;;;;;;;19.37;100.00;100552.88;10468009;28;20063;-82
2024/02/14 09:04:55;;;;;;;7.15;2.70;;;;;;;19.89;100.00;100544.44;10433399;28;20530;-81
2024/02/14 09:10:19;;;;;;;8.43;3.22;;;;;;;19.21;100.00;100538.09;10465097;28;20041;-82
2024/02/14 09:15:42;;;;;;;6.05;3.13;;;;;;;19.55;100.00;100541.78;10453057;28;20045;-81
2024/02/14 09:21:05;;;;;;;5.07;2.35;;;;;;;24.52;100.00;100554.94;10440735;28;20487;-82
2024/02/14 09:26:29;;;;;;;2.35;2.03;;;;;;;22.36;100.00;100554.72;10425447;28;20424;-81
2024/02/14 09:31:52;;;;;;;3.45;2.65;;;;;;;19.20;100.00;100576.50;10453612;28;20044;-82
2024/02/14 09:37:14;;;;;;;12.13;3.53;;;;;;;17.79;100.00;100588.16;10481086;28;20099;-83
2024/02/14 09:42:41;;;;;;;12.27;3.80;;;;;;;17.59;100.00;100587.59;10466862;28;20060;-80
2024/02/14 09:48:05;;;;;;;7.13;3.17;;;;;;;17.44;100.00;100591.38;10478206;28;20070;-80
2024/02/14 09:53:30;;;;;;;5.72;2.97;;;;;;;18.14;100.00;100590.22;10446773;28;20045;-79
2024/02/14 09:58:56;;;;;;;5.13;2.83;;;;;;;17.67;100.00;100599.03;10474434;28;20057;-83
2024/02/14 10:04:20;;;;;;;6.32;4.03;;;;;;;17.96;100.00;100596.78;10450400;28;20136;-81
2024/02/14 10:09:43;;;;;;;6.80;4.53;;;;;;;18.52;100.00;100577.00;10459396;28;20819;-78
2024/02/14 10:15:08;;;;;;;6.93;3.47;;;;;;;19.07;100.00;100570.53;10434614;28;20056;-82
2024/02/14 10:20:33;;;;;;;6.75;3.53;;;;;;;21.05;100.00;100563.53;10432065;28;20506;-83
2024/02/14 10:25:57;;;;;;;11.88;3.55;;;;;;;24.51;100.00;100541.50;10469422;28;20068;-82
2024/02/14 10:31:21;;;;;;;8.00;3.20;;;;;;;26.83;86.18;100527.09;10450207;28;20049;-84
2024/02/14 10:36:44;;;;;;;11.32;4.32;;;;;;;28.05;72.66;100522.75;10457156;28;20512;-82
2024/02/14 10:42:07;;;;;;;7.07;2.63;;;;;;;25.62;91.79;100517.28;10449727;28;20053;-86
2024/02/14 10:47:35;;;;;;;6.18;1.90;;;;;;;24.03;100.00;100522.91;10419074;28;20045;-86
2024/02/14 10:53:01;;;;;;;7.28;2.28;;;;;;;22.22;100.00;100522.06;10466536;28;20132;-84
2024/02/14 10:58:25;;;;;;;3.88;1.67;;;;;;;22.01;100.00;100514.75;10431307;28;20048;-84
2024/02/14 11:03:50;;;;;;;3.53;1.65;;;;;;;22.89;100.00;100523.13;10446451;28;20532;-84
2024/02/14 11:09:15;;;;;;;4.38;1.38;;;;;;;24.09;88.42;100523.53;10432180;28;20053;-84
2024/02/14 11:14:39;;;;;;;6.35;2.67;;;;;;;23.21;90.34;100523.69;10419561;28;20576;-84
2024/02/14 11:20:18;;;;;;;4.75;2.13;;;;;;;22.54;95.44;100528.94;10459802;28;20045;-84
2024/02/14 11:25:41;;;;;;;5.90;2.00;;;;;;;22.51;93.54;100529.06;10474985;28;20048;-85
2024/02/14 11:31:04;;;;;;;6.47;2.10;;;;;;;22.76;90.07;100523.66;10472848;28;20075;-86
2024/02/14 11:36:28;;;;;;;5.22;2.05;;;;;;;22.88;84.31;100518.69;10442836;28;20055;-86
2024/02/14 11:41:51;;;;;;;4.50;1.88;;;;;;;21.36;95.87;100513.34;10413208;28;20110;-85
2024/02/14 11:47:14;;;;;;;6.22;1.98;;;;;;;20.61;99.39;100520.13;10430286;28;20136;-85
2024/02/14 11:52:38;;;;;;;5.65;2.13;;;;;;;20.63;100.00;100518.28;10453736;28;20060;-86
2024/02/14 11:58:00;;;;;;;9.90;2.35;;;;;;;20.35;100.00;100514.63;10471922;28;20038;-86
2024/02/14 12:03:25;;;;;;;6.97;2.17;;;;;;;19.73;100.00;100508.28;10432697;28;20107;-86
2024/02/14 12:08:49;;;;;;;3.45;1.90;;;;;;;19.36;100.00;100521.69;10432523;28;20055;-85
2024/02/14 12:14:13;;;;;;;6.18;1.90;;;;;;;19.70;100.00;100514.59;10416434;28;20053;-85
2024/02/14 12:19:37;;;;;;;5.97;2.30;;;;;;;20.06;100.00;100514.53;10464777;28;20045;-83
2024/02/14 12:25:02;;;;;;;2.80;1.63;;;;;;;20.05;100.00;100499.38;10478026;28;20149;-86
2024/02/14 12:30:35;;;;;;;6.05;1.90;;;;;;;19.95;100.00;100509.50;10454223;28;20131;-86
2024/02/14 12:35:58;;;;;;;4.20;1.20;;;;;;;19.92;96.42;100514.03;10441695;28;20064;-86
2024/02/14 12:41:23;;;;;;;5.22;1.77;;;;;;;19.62;91.45;100513.94;10446648;28;20053;-86
2024/02/14 12:46:45;;;;;;;3.78;1.17;;;;;;;18.99;93.34;100519.88;10454267;28;20044;-87
2024/02/14 12:52:08;;;;;;;4.25;1.55;;;;;;;18.95;97.05;100534.25;10439644;28;20052;-89
2024/02/14 12:57:32;;;;;;;4.20;1.40;;;;;;;18.81;94.07;100527.41;10466552;28;20045;-90
2024/02/14 13:02:55;;;;;;;5.75;2.35;;;;;;;18.79;92.20;100521.22;10450780;28;20048;-90
2024/02/14 13:08:18;;;;;;;2.88;1.60;;;;;;;18.94;92.24;100515.53;10434175;28;20414;-90
2024/02/14 13:13:43;;;;;;;8.98;2.20;;;;;;;18.49;96.03;100514.72;10436419;28;20159;-90
2024/02/14 13:19:05;;;;;;;7.88;2.40;;;;;;;18.24;99.61;100512.53;10426087;28;20041;-90
2024/02/14 13:24:28;;;;;;;5.25;2.53;;;;;;;18.49;100.00;100523.63;10442925;28;20460;-90
2024/02/14 13:29:52;;;;;;;3.17;2.05;;;;;;;19.14;96.58;100517.75;10477915;28;20037;-91
2024/02/14 13:35:14;;;;;;;8.10;3.80;;;;;;;19.39;92.53;100525.16;10435160;28;20102;-91
2024/02/14 13:40:37;;;;;;;5.10;2.00;;;;;;;19.62;90.90;100513.03;10438821;28;20049;-90
2024/02/14 13:46:02;;;;;;;8.48;2.60;;;;;;;19.58;90.89;100511.34;10437335;28;20075;-90
2024/02/14 13:51:24;;;;;;;7.03;1.95;;;;;;;19.28;95.47;100519.19;10449681;28;20063;-90
2024/02/14 13:56:48;;;;;;;3.70;2.08;;;;;;;18.40;98.01;100520.22;10441622;28;20047;-90
2024/02/14 14:02:12;;;;;;;7.03;1.95;;;;;;;17.70;100.00;100518.91;10446548;28;20579;-91
2024/02/14 14:07:36;;;;;;;9.68;2.00;;;;;;;17.28;100.00;100524.00;10472402;28;20037;-90
2024/02/14 14:12:58;;;;;;;6.43;2.10;;;;;;;17.25;100.00;100536.53;10434277;28;20077;-90
2024/02/14 14:18:22;;;;;;;5.13;1.98;;;;;;;17.29;100.00;100533.78;10458670;28;20037;-89
2024/02/14 14:23:46;;;;;;;4.95;1.58;;;;;;;17.29;100.00;100538.22;10433139;28;20056;-91
2024/02/14 14:29:10;;;;;;;1.90;1.65;;;;;;;17.48;100.00;100539.69;10440895;28;20044;-90
2024/02/14 14:34:35;;;;;;;5.93;2.30;;;;;;;17.29;100.00;100538.22;10473809;28;20080;-88
2024/02/14 14:39:58;;;;;;;8.35;2.33;;;;;;;17.32;100.00;100531.06;10463978;28;20051;-85
2024/02/14 14:45:20;;;;;;;10.48;3.25;;;;;;;17.51;100.00;100529.88;10434541;28;20074;-88
2024/02/14 14:50:44;;;;;;;9.27;3.35;;;;;;;17.22;100.00;100545.44;10429820;28;20052;-88
2024/02/14 14:56:07;;;;;;;10.80;4.13;;;;;;;16.86;100.00;100552.19;10448414;28;20376;-88
2024/02/14 15:01:31;;;;;;;10.15;6.90;;;;;;;16.39;100.00;100559.84;10437619;28;20056;-85
2024/02/14 15:06:56;;;;;;;5.25;2.60;;;;;;;16.14;100.00;100564.56;10461156;28;20720;-85
2024/02/14 15:12:19;;;;;;;10.75;3.08;;;;;;;15.99;100.00;100578.03;10446627;28;20064;-90
2024/02/14 15:17:41;;;;;;;11.57;3.05;;;;;;;15.98;100.00;100585.13;10426417;28;20053;-87
2024/02/14 15:23:07;;;;;;;5.45;2.00;;;;;;;15.75;100.00;100587.13;10418324;28;20060;-89
2024/02/14 15:28:30;;;;;;;9.55;6.03;;;;;;;15.59;100.00;100593.47;10494628;28;20040;-89
2024/02/14 15:33:53;;;;;;;5.32;3.13;;;;;;;15.51;100.00;100599.69;10513149;28;20040;-91
2024/02/14 15:39:17;;;;;;;5.53;2.65;;;;;;;15.47;100.00;100599.72;10465469;28;20045;-88
2024/02/14 15:44:39;;;;;;;5.95;3.58;;;;;;;15.51;100.00;100606.78;10435947;28;20048;-87
2024/02/14 15:50:02;;;;;;;8.88;3.17;;;;;;;15.58;100.00;100600.56;10427208;28;20548;-89
2024/02/14 15:55:27;;;;;;;7.47;3.30;;;;;;;15.36;100.00;100607.75;10453046;28;20509;-87
2024/02/14 16:00:50;;;;;;;7.78;4.20;;;;;;;15.32;100.00;100618.44;10483357;28;20041;-88
2024/02/14 16:06:12;;;;;;;8.20;4.75;;;;;;;15.23;100.00;100621.16;10472154;28;20063;-88
2024/02/14 16:11:36;;;;;;;8.27;3.65;;;;;;;15.29;100.00;100622.00;10461790;28;20099;-85
2024/02/14 16:16:59;;;;;;;8.63;3.35;;;;;;;15.49;100.00;100625.41;10483526;28;20053;-83
2024/02/14 16:22:24;;;;;;;17.50;8.25;;;;;;;15.51;100.00;100634.28;10475604;28;20048;-85
2024/02/14 16:27:48;;;;;;;7.35;3.47;;;;;;;15.49;100.00;100651.16;10441638;28;20103;-85
2024/02/14 16:33:10;;;;;;;63.80;27.15;;;;;;;15.29;100.00;100655.72;10433036;28;20166;-83
2024/02/14 16:38:35;;;;;;;9.80;4.72;;;;;;;15.27;100.00;100660.13;10432314;28;20394;-85
2024/02/14 16:43:59;;;;;;;9.95;5.18;;;;;;;15.33;100.00;100652.13;10455571;28;20517;-84
2024/02/14 16:49:22;;;;;;;10.35;6.70;;;;;;;15.20;100.00;100663.72;10454579;28;20399;-81
2024/02/14 16:54:44;;;;;;;8.43;4.95;;;;;;;15.11;100.00;100657.53;10443616;28;20131;-81
2024/02/14 17:00:10;;;;;;;11.18;4.55;;;;;;;15.44;100.00;100661.81;10466593;28;20048;-85
2024/02/14 17:05:33;;;;;;;14.80;4.72;;;;;;;15.31;100.00;100654.78;10455879;28;20143;-82
2024/02/14 17:10:55;;;;;;;13.50;6.57;;;;;;;15.16;100.00;100665.53;10453198;28;20051;-85
2024/02/14 17:16:19;;;;;;;12.02;4.30;;;;;;;15.28;100.00;100672.56;10438424;28;20106;-90
2024/02/14 17:21:42;;;;;;;10.30;6.60;;;;;;;15.32;100.00;100677.84;10467086;28;20851;-85
2024/02/14 17:27:04;;;;;;;11.35;7.88;;;;;;;15.27;100.00;100673.44;10438774;28;20616;-84
2024/02/14 17:32:28;;;;;;;9.20;5.43;;;;;;;15.38;100.00;100668.94;10452599;28;20041;-83
2024/02/14 17:37:51;;;;;;;9.38;6.22;;;;;;;15.57;100.00;100665.31;10439207;28;20669;-85
2024/02/14 17:43:14;;;;;;;27.05;11.80;;;;;;;15.51;100.00;100665.31;10451887;28;20084;-88
2024/02/14 17:48:38;;;;;;;14.25;8.45;;;;;;;15.47;100.00;100672.44;10464274;28;20715;-83
2024/02/14 17:54:02;;;;;;;17.17;9.02;;;;;;;15.41;100.00;100672.47;10452342;28;20092;-90
2024/02/14 17:59:25;;;;;;;14.50;9.88;;;;;;;15.33;100.00;100676.94;10426625;28;20045;-88
2024/02/14 18:04:50;;;;;;;18.25;11.50;;;;;;;15.34;100.00;100672.50;10428796;28;20648;-89
2024/02/14 18:10:13;;;;;;;19.52;10.23;;;;;;;15.40;100.00;100680.47;10463749;28;20088;-90
2024/02/14 18:15:36;;;;;;;13.07;6.85;;;;;;;15.37;100.00;100681.34;10476040;28;20052;-89
2024/02/14 18:21:00;;;;;;;12.25;8.27;;;;;;;15.26;100.00;100682.31;10429138;28;20049;-83
2024/02/14 18:26:23;;;;;;;11.77;7.63;;;;;;;15.15;100.00;100683.25;10449946;28;20084;-81
2024/02/14 18:31:45;;;;;;;14.98;8.25;;;;;;;15.06;100.00;100683.28;10440267;28;20511;-85
2024/02/14 18:37:10;;;;;;;14.05;7.32;;;;;;;15.13;100.00;100684.13;10467285;28;20049;-83
2024/02/14 18:42:33;;;;;;;15.98;8.57;;;;;;;15.25;100.00;100683.19;10481327;28;20057;-86
2024/02/14 18:47:55;;;;;;;18.92;14.20;;;;;;;15.29;100.00;100699.16;10453569;28;20056;-82
2024/02/14 18:53:20;;;;;;;24.85;11.82;;;;;;;15.10;100.00;100703.63;10453049;28;20052;-83
2024/02/14 18:58:42;;;;;;;15.88;9.27;;;;;;;14.96;100.00;100712.56;10439538;28;20570;-84
2024/02/14 19:04:05;;;;;;;23.35;10.68;;;;;;;14.79;100.00;100711.72;10466493;28;20049;-85
2024/02/14 19:09:31;;;;;;;20.77;10.75;;;;;;;14.67;100.00;100710.88;10412992;28;20060;-85
2024/02/14 19:14:55;;;;;;;18.20;9.65;;;;;;;14.66;100.00;100709.09;10439987;28;20053;-83
2024/02/14 19:20:18;;;;;;;21.98;13.35;;;;;;;14.53;100.00;100711.75;10451563;28;20041;-84
2024/02/14 19:25:42;;;;;;;15.82;8.40;;;;;;;14.48;100.00;100722.41;10438070;28;20068;-82
2024/02/14 19:31:05;;;;;;;21.70;12.05;;;;;;;14.38;100.00;100717.09;10438945;28;20114;-83
2024/02/14 19:36:31;;;;;;;22.65;13.48;;;;;;;14.24;100.00;100720.59;10429255;28;20060;-80
2024/02/14 19:41:56;;;;;;;20.20;11.85;;;;;;;14.45;100.00;100718.84;10436443;28;20098;-84
2024/02/14 19:47:18;;;;;;;22.10;14.95;;;;;;;14.56;100.00;100717.09;10450251;28;20052;-84
2024/02/14 19:52:41;;;;;;;22.33;13.85;;;;;;;14.59;100.00;100714.41;10433753;28;20061;-86
2024/02/14 19:58:05;;;;;;;22.27;11.85;;;;;;;14.62;100.00;100719.72;10420125;28;20503;-86
2024/02/14 20:03:28;;;;;;;25.25;13.13;;;;;;;14.55;100.00;100702.03;10448875;28;20053;-86
2024/02/14 20:08:51;;;;;;;15.50;9.70;;;;;;;14.80;100.00;100700.19;10446094;28;20099;-83
2024/02/14 20:14:15;;;;;;;25.27;16.65;;;;;;;15.11;100.00;100697.44;10473265;28;20060;-87
2024/02/14 20:19:40;;;;;;;19.02;14.40;;;;;;;15.34;100.00;100694.69;10459361;28;20110;-85
2024/02/14 20:25:03;;;;;;;20.55;11.70;;;;;;;15.31;100.00;100688.47;10430414;28;20099;-85
2024/02/14 20:30:28;;;;;;;20.60;11.35;;;;;;;15.18;100.00;100689.41;10467665;28;20355;-85
2024/02/14 20:35:50;;;;;;;22.30;10.25;;;;;;;14.93;100.00;100692.19;10457157;28;20411;-84
2024/02/14 20:41:15;;;;;;;19.77;12.00;;;;;;;14.96;100.00;100688.66;10465515;28;20104;-84
2024/02/14 20:46:39;;;;;;;15.65;8.40;;;;;;;15.11;100.00;100685.91;10452505;28;20037;-84
2024/02/14 20:52:02;;;;;;;20.20;10.73;;;;;;;15.31;100.00;100676.06;10477988;28;20053;-85
2024/02/14 20:57:24;;;;;;;17.45;10.75;;;;;;;15.09;100.00;100685.94;10465051;28;20119;-85
2024/02/14 21:02:49;;;;;;;15.00;8.63;;;;;;;14.77;100.00;100692.25;10453018;28;20071;-85
2024/02/14 21:08:11;;;;;;;19.10;12.68;;;;;;;14.63;100.00;100682.53;10446312;28;20053;-86
2024/02/14 21:13:34;;;;;;;19.85;10.43;;;;;;;14.79;100.00;100691.34;10435942;28;20049;-85
2024/02/14 21:18:58;;;;;;;17.05;8.95;;;;;;;15.13;100.00;100682.38;10467536;28;20058;-85
2024/02/14 21:24:21;;;;;;;15.88;7.40;;;;;;;15.32;100.00;100671.63;10496609;28;20057;-84
2024/02/14 21:29:44;;;;;;;10.80;7.22;;;;;;;15.30;100.00;100668.09;10486313;28;20052;-83
2024/02/14 21:35:11;;;;;;;9.68;6.40;;;;;;;15.18;100.00;100676.13;10470848;28;20385;-84
2024/02/14 21:40:33;;;;;;;11.85;7.95;;;;;;;15.04;100.00;100666.44;10455234;28;20055;-84
2024/02/14 21:45:57;;;;;;;18.85;8.70;;;;;;;14.96;100.00;100670.03;10465931;28;20140;-85
2024/02/14 21:51:21;;;;;;;12.88;8.75;;;;;;;15.09;100.00;100677.97;10442454;28;20094;-85
2024/02/14 21:56:44;;;;;;;14.60;8.80;;;;;;;15.08;100.00;100675.31;10425786;28;20037;-85
2024/02/14 22:02:06;;;;;;;13.05;6.80;;;;;;;15.18;100.00;100665.50;10411594;28;20576;-83
2024/02/14 22:07:30;;;;;;;12.25;6.93;;;;;;;15.19;100.00;100673.47;10399325;28;20050;-85
2024/02/14 22:12:55;;;;;;;15.30;6.97;;;;;;;15.06;100.00;100677.97;10478300;28;20067;-86
2024/02/14 22:18:19;;;;;;;14.05;7.70;;;;;;;15.06;100.00;100671.75;10411514;28;20053;-86
2024/02/14 22:23:43;;;;;;;10.57;4.90;;;;;;;15.11;100.00;100676.16;10450877;28;20148;-85
2024/02/14 22:29:06;;;;;;;10.95;5.30;;;;;;;14.99;100.00;100672.66;10436976;28;20439;-85
2024/02/14 22:34:29;;;;;;;12.40;6.00;;;;;;;14.88;100.00;100675.38;10429589;28;20052;-85
2024/02/14 22:39:53;;;;;;;8.38;4.20;;;;;;;14.87;100.00;100675.38;10437657;28;20568;-86
2024/02/14 22:45:16;;;;;;;10.50;5.15;;;;;;;14.90;100.00;100672.72;10460193;28;20095;-86
2024/02/14 22:50:38;;;;;;;9.90;4.75;;;;;;;14.98;100.00;100670.91;10445608;28;20422;-85
2024/02/14 22:56:02;;;;;;;8.23;4.60;;;;;;;15.04;100.00;100668.22;10501750;28;20048;-86
2024/02/14 23:01:25;;;;;;;10.27;5.15;;;;;;;15.30;100.00;100665.41;10489765;28;20040;-86
2024/02/14 23:06:48;;;;;;;17.55;4.88;;;;;;;15.33;100.00;100649.47;10492130;28;20107;-85
2024/02/14 23:12:12;;;;;;;13.18;5.28;;;;;;;15.30;100.00;100654.78;10458675;28;20045;-86
2024/02/14 23:17:35;;;;;;;15.07;5.32;;;;;;;15.21;100.00;100650.41;10467813;28;20056;-86
2024/02/14 23:22:57;;;;;;;12.75;5.30;;;;;;;15.18;100.00;100665.50;10435214;28;20053;-87
2024/02/14 23:28:24;;;;;;;12.32;5.40;;;;;;;14.92;100.00;100666.50;10434652;28;20061;-86
2024/02/14 23:33:46;;;;;;;15.10;5.45;;;;;;;14.80;100.00;100658.56;10432362;28;20047;-85
2024/02/14 23:39:09;;;;;;;10.73;5.47;;;;;;;14.51;100.00;100671.03;10435196;28;20052;-86
2024/02/14 23:44:34;;;;;;;8.60;4.50;;;;;;;14.49;100.00;100665.75;10457770;28;20061;-85
2024/02/14 23:49:57;;;;;;;11.85;5.70;;;;;;;14.45;100.00;100663.06;10434794;28;20076;-86
2024/02/14 23:55:20;;;;;;;12.80;5.55;;;;;;;14.35;100.00;100675.47;10446858;28;20057;-85
